Marshall, Oklahoma
Current Conditions -  °F | °C
As of 1:55 AM on Saturday 25 Oct 2014 (Local Time) from KWDG Reporting Station
NA  
Wind Chill: 59°   Ceiling: NA
Heat Index: 59°   Visibility: 7mi
Dew Point: 59°   Wind: 3mph
Humidity: 100%   Direction: 180°S
Pressure: 30.02"   Gusts: NA
Location:  36.15°N, 97.63°W
Report Text: KWDG 250655Z AUTO 18003KT 7SM 15/15 A3002 RMK AO2
Loading
Personal Weather Stations






























Interactive Weather Map
Tropical Storm Tracking
New forecast layout! Learn more

10-Day Weather Forecast

Advertisements
Track Severe Weather on mobile